Time;durP1;ratioP1;P1;durP2;ratioP2;P2;SDS_P1;SDS_P2;PMS_P1;PMS_P2;Temp;Humidity;BMP_temperature;BMP_pressure;BME280_temperature;BME280_humidity;BME280_pressure;Samples;Min_cycle;Max_cycle;Signal;HPM_P1;HPM_P2
2021/12/07 00:01:48;;;;;;;16.13;10.53;;;;;;;;;;5002410;28;20198;-73
2021/12/07 00:04:15;;;;;;;17.47;10.70;;;;;;;;;;5002652;28;20210;-73
2021/12/07 00:06:41;;;;;;;18.43;11.30;;;;;;;;;;4998443;28;20239;-73
2021/12/07 00:09:09;;;;;;;17.73;10.83;;;;;;;;;;5005994;28;20599;-73
2021/12/07 00:11:35;;;;;;;22.10;11.90;;;;;;;;;;5007754;28;20198;-74
2021/12/07 00:14:10;;;;;;;20.10;10.93;;;;;;;;;;5020173;28;20491;-74
2021/12/07 00:16:36;;;;;;;17.30;10.63;;;;;;;;;;5013534;28;20241;-74
2021/12/07 00:19:03;;;;;;;18.80;10.70;;;;;;;;;;5006052;28;20248;-75
2021/12/07 00:21:28;;;;;;;16.83;10.97;;;;;;;;;;5004985;28;20190;-75
2021/12/07 00:23:54;;;;;;;19.53;11.63;;;;;;;;;;5004525;28;20649;-74
2021/12/07 00:26:19;;;;;;;17.90;11.00;;;;;;;;;;5005977;28;20215;-74
2021/12/07 00:28:45;;;;;;;20.40;11.70;;;;;;;;;;4998258;28;20183;-74
2021/12/07 00:31:20;;;;;;;17.20;10.67;;;;;;;;;;5006969;28;20235;-75
2021/12/07 00:33:52;;;;;;;18.57;10.80;;;;;;;;;;4991945;28;20265;-74
2021/12/07 00:36:17;;;;;;;19.87;11.17;;;;;;;;;;5005982;28;20174;-74
2021/12/07 00:38:43;;;;;;;17.67;11.03;;;;;;;;;;5009770;28;20244;-74
2021/12/07 00:41:09;;;;;;;18.87;11.97;;;;;;;;;;5005201;28;20204;-74
2021/12/07 00:43:35;;;;;;;18.37;11.60;;;;;;;;;;5002007;28;20194;-73
2021/12/07 00:46:01;;;;;;;18.63;11.40;;;;;;;;;;5009620;28;20302;-74
2021/12/07 00:48:28;;;;;;;17.50;10.80;;;;;;;;;;5013570;28;20257;-73
2021/12/07 00:50:54;;;;;;;15.20;10.27;;;;;;;;;;5000948;28;20213;-72
2021/12/07 00:53:21;;;;;;;19.20;10.77;;;;;;;;;;5015727;28;20218;-72
2021/12/07 00:55:50;;;;;;;16.57;9.90;;;;;;;;;;5004365;28;20215;-72
2021/12/07 00:58:21;;;;;;;15.27;10.27;;;;;;;;;;5009045;28;20195;-72
2021/12/07 01:00:51;;;;;;;16.70;9.97;;;;;;;;;;4997587;28;20199;-73
2021/12/07 01:03:17;;;;;;;19.00;10.70;;;;;;;;;;5009831;28;20253;-73
2021/12/07 01:05:49;;;;;;;16.23;10.70;;;;;;;;;;5002386;28;20213;-72
2021/12/07 01:08:25;;;;;;;16.53;10.23;;;;;;;;;;5006028;28;20187;-72
2021/12/07 01:24:42;;;;;;;19.87;11.20;;;;;;;;;;5013778;28;20203;-72
2021/12/07 01:27:09;;;;;;;18.37;11.80;;;;;;;;;;4997707;28;20194;-72
2021/12/07 01:29:36;;;;;;;21.13;12.17;;;;;;;;;;5004577;28;20198;-72
2021/12/07 01:32:29;;;;;;;19.77;11.53;;;;;;;;;;4994328;28;20217;-72
2021/12/07 01:40:24;;;;;;;17.93;10.43;;;;;;;;;;5006679;28;20647;-71
2021/12/07 01:49:53;;;;;;;17.40;9.83;;;;;;;;;;5002578;28;20285;-71
2021/12/07 02:01:52;;;;;;;15.60;9.30;;;;;;;;;;5007924;28;20193;-71
2021/12/07 02:04:17;;;;;;;18.60;10.17;;;;;;;;;;4997909;28;20597;-71
2021/12/07 02:06:43;;;;;;;15.50;9.90;;;;;;;;;;5011722;28;20261;-71
2021/12/07 02:09:11;;;;;;;15.40;10.27;;;;;;;;;;4998365;28;20615;-72
2021/12/07 02:11:39;;;;;;;17.70;11.27;;;;;;;;;;5008682;28;20203;-72
2021/12/07 02:14:16;;;;;;;18.10;11.03;;;;;;;;;;5002731;28;20197;-72
2021/12/07 02:16:43;;;;;;;18.60;12.30;;;;;;;;;;5010668;28;20230;-71
2021/12/07 02:19:08;;;;;;;18.93;10.97;;;;;;;;;;4998039;28;20648;-72
2021/12/07 02:21:34;;;;;;;19.07;12.37;;;;;;;;;;5013594;28;20269;-72
2021/12/07 02:23:59;;;;;;;19.60;12.10;;;;;;;;;;4999539;28;20183;-72
2021/12/07 02:26:24;;;;;;;19.60;12.90;;;;;;;;;;5011490;28;20182;-71
2021/12/07 02:28:52;;;;;;;20.63;12.47;;;;;;;;;;4998697;28;20684;-71
2021/12/07 02:31:18;;;;;;;19.33;12.67;;;;;;;;;;5002423;28;20199;-71
2021/12/07 02:33:43;;;;;;;23.47;14.13;;;;;;;;;;5000300;28;20665;-72
2021/12/07 02:36:09;;;;;;;23.80;15.10;;;;;;;;;;5011218;28;20189;-72
2021/12/07 02:38:35;;;;;;;23.80;15.23;;;;;;;;;;5004196;28;20191;-72
2021/12/07 02:41:00;;;;;;;23.30;14.33;;;;;;;;;;5001678;28;20459;-72
2021/12/07 02:43:26;;;;;;;24.27;14.63;;;;;;;;;;5005382;28;20179;-72
2021/12/07 02:45:51;;;;;;;25.67;15.80;;;;;;;;;;4999808;28;20559;-71
2021/12/07 02:48:20;;;;;;;26.30;15.47;;;;;;;;;;5005565;28;20186;-72
2021/12/07 02:50:47;;;;;;;23.73;14.43;;;;;;;;;;4993371;28;20566;-71
2021/12/07 02:53:12;;;;;;;25.23;15.77;;;;;;;;;;5003164;28;20198;-71
2021/12/07 02:55:38;;;;;;;27.13;15.17;;;;;;;;;;5002363;28;20301;-71
2021/12/07 02:58:03;;;;;;;23.10;14.10;;;;;;;;;;5008552;28;20194;-72
2021/12/07 03:00:36;;;;;;;25.03;14.87;;;;;;;;;;5001133;28;21536;-72
2021/12/07 03:03:07;;;;;;;25.03;15.13;;;;;;;;;;5005658;28;20195;-71
2021/12/07 03:06:04;;;;;;;26.50;15.90;;;;;;;;;;4997870;28;20190;-71
2021/12/07 03:27:47;;;;;;;26.73;15.93;;;;;;;;;;4998162;28;20681;-71
2021/12/07 03:30:12;;;;;;;24.47;15.80;;;;;;;;;;5005676;28;20195;-71
2021/12/07 03:32:38;;;;;;;25.73;15.97;;;;;;;;;;4999527;28;20297;-71
2021/12/07 03:35:03;;;;;;;28.23;16.80;;;;;;;;;;5006140;28;20198;-71
2021/12/07 03:37:29;;;;;;;26.90;16.70;;;;;;;;;;5007923;28;20696;-71
2021/12/07 03:39:54;;;;;;;29.63;17.87;;;;;;;;;;5006301;28;20208;-71
2021/12/07 03:42:19;;;;;;;27.70;16.67;;;;;;;;;;5002240;28;20301;-71
2021/12/07 03:44:45;;;;;;;25.57;15.03;;;;;;;;;;5007265;28;20657;-71
2021/12/07 03:47:10;;;;;;;25.80;16.57;;;;;;;;;;5012795;28;20187;-71
2021/12/07 03:49:35;;;;;;;28.87;16.47;;;;;;;;;;4998910;28;20207;-70
2021/12/07 03:52:01;;;;;;;28.87;16.93;;;;;;;;;;5015023;28;20214;-70
2021/12/07 03:54:26;;;;;;;27.00;16.57;;;;;;;;;;4995872;28;20202;-71
2021/12/07 03:56:51;;;;;;;29.83;16.50;;;;;;;;;;5019005;28;20657;-71
2021/12/07 03:59:17;;;;;;;28.57;16.40;;;;;;;;;;4999603;28;20602;-71
2021/12/07 04:01:42;;;;;;;28.43;16.27;;;;;;;;;;5006718;28;20191;-71
2021/12/07 04:04:08;;;;;;;28.67;17.03;;;;;;;;;;5001391;28;20336;-70
2021/12/07 04:06:33;;;;;;;26.57;16.27;;;;;;;;;;5011643;28;20277;-70
2021/12/07 04:08:59;;;;;;;30.30;17.07;;;;;;;;;;4998397;28;20264;-70
2021/12/07 04:11:25;;;;;;;29.93;16.53;;;;;;;;;;5006667;28;20214;-70
2021/12/07 04:13:50;;;;;;;29.80;16.57;;;;;;;;;;4991784;28;20186;-69
2021/12/07 04:16:17;;;;;;;28.33;14.67;;;;;;;;;;5002466;28;20245;-69
2021/12/07 04:18:42;;;;;;;29.07;15.50;;;;;;;;;;5002631;28;20328;-69
2021/12/07 04:21:08;;;;;;;31.53;16.03;;;;;;;;;;5001571;28;20273;-69
2021/12/07 04:23:34;;;;;;;30.37;15.77;;;;;;;;;;5009189;28;20199;-69
2021/12/07 04:26:02;;;;;;;30.00;15.30;;;;;;;;;;4999453;28;20191;-69
2021/12/07 04:28:27;;;;;;;28.97;15.23;;;;;;;;;;5019845;28;20251;-69
2021/12/07 04:30:53;;;;;;;26.27;14.77;;;;;;;;;;4996253;28;20719;-70
2021/12/07 04:33:18;;;;;;;34.00;15.30;;;;;;;;;;5016589;28;20650;-70
2021/12/07 04:35:49;;;;;;;26.27;16.30;;;;;;;;;;5001402;28;20187;-70
2021/12/07 04:38:16;;;;;;;29.67;16.30;;;;;;;;;;5004015;28;20242;-70
2021/12/07 04:40:42;;;;;;;34.13;16.90;;;;;;;;;;5001196;28;20183;-70
2021/12/07 04:43:08;;;;;;;29.50;16.47;;;;;;;;;;5010195;28;20187;-70
2021/12/07 04:48:34;;;;;;;32.70;16.83;;;;;;;;;;5012229;28;20204;-70
2021/12/07 04:57:37;;;;;;;32.00;16.43;;;;;;;;;;5001054;28;20191;-70
2021/12/07 04:59:15;;;;;;;31.93;16.33;;;;;;;;;;5008536;28;20670;-70
2021/12/07 05:01:42;;;;;;;32.67;16.20;;;;;;;;;;5000556;28;20182;-70
2021/12/07 05:04:19;;;;;;;30.90;15.83;;;;;;;;;;5007871;28;20174;-70
2021/12/07 05:06:49;;;;;;;35.53;16.37;;;;;;;;;;5003085;28;20198;-69
2021/12/07 05:11:53;;;;;;;32.83;16.37;;;;;;;;;;5015182;28;20218;-70
2021/12/07 05:14:23;;;;;;;38.53;18.30;;;;;;;;;;5004486;28;20171;-70
2021/12/07 05:17:17;;;;;;;34.97;17.57;;;;;;;;;;5009085;28;20223;-69
2021/12/07 05:39:05;;;;;;;42.20;17.23;;;;;;;;;;4999824;28;20282;-69
2021/12/07 05:41:31;;;;;;;31.87;16.07;;;;;;;;;;5007048;28;20187;-69
2021/12/07 05:43:56;;;;;;;34.60;16.57;;;;;;;;;;5001995;28;20190;-69
2021/12/07 05:46:22;;;;;;;40.70;17.37;;;;;;;;;;5008344;28;20183;-69
2021/12/07 05:48:47;;;;;;;36.83;17.87;;;;;;;;;;5000234;28;23265;-69
2021/12/07 05:51:13;;;;;;;38.23;17.87;;;;;;;;;;5006520;28;20217;-69
2021/12/07 05:53:38;;;;;;;39.27;18.57;;;;;;;;;;5009888;28;20194;-70
2021/12/07 05:56:04;;;;;;;42.70;18.77;;;;;;;;;;4999059;28;21137;-69
2021/12/07 05:58:29;;;;;;;44.07;18.10;;;;;;;;;;5018168;28;20182;-69
2021/12/07 06:00:57;;;;;;;40.07;18.47;;;;;;;;;;4997461;28;20188;-69
2021/12/07 06:03:25;;;;;;;45.13;18.07;;;;;;;;;;5009280;28;20619;-69
2021/12/07 06:05:50;;;;;;;42.77;18.87;;;;;;;;;;4993094;28;20183;-69
2021/12/07 06:08:16;;;;;;;36.50;16.47;;;;;;;;;;5015959;28;20198;-70
2021/12/07 06:10:41;;;;;;;43.37;17.90;;;;;;;;;;4998651;28;20289;-70
2021/12/07 06:13:06;;;;;;;42.30;18.17;;;;;;;;;;5005426;28;20344;-69
2021/12/07 06:15:35;;;;;;;38.93;16.83;;;;;;;;;;5004111;28;20190;-70
2021/12/07 06:18:00;;;;;;;39.90;17.20;;;;;;;;;;5003798;28;20727;-69
2021/12/07 06:20:26;;;;;;;36.93;16.30;;;;;;;;;;4999014;28;21139;-70
2021/12/07 06:22:51;;;;;;;39.23;16.73;;;;;;;;;;5009655;28;20606;-69
2021/12/07 06:25:17;;;;;;;38.70;16.00;;;;;;;;;;5009182;28;20552;-69
2021/12/07 06:27:43;;;;;;;40.53;16.83;;;;;;;;;;4998937;28;20187;-70
2021/12/07 06:30:10;;;;;;;38.80;16.77;;;;;;;;;;5007765;28;20253;-69
2021/12/07 06:32:36;;;;;;;39.87;15.73;;;;;;;;;;5003457;28;20264;-69
2021/12/07 06:35:02;;;;;;;38.50;17.03;;;;;;;;;;5000739;28;20486;-69
2021/12/07 06:37:27;;;;;;;44.47;16.67;;;;;;;;;;4996513;28;20195;-69
2021/12/07 06:39:53;;;;;;;44.17;17.23;;;;;;;;;;4998305;28;20179;-69
2021/12/07 06:42:18;;;;;;;40.67;16.63;;;;;;;;;;4996260;28;20179;-69
2021/12/07 06:44:43;;;;;;;44.07;17.67;;;;;;;;;;5003674;28;20259;-70
2021/12/07 06:47:09;;;;;;;42.67;17.43;;;;;;;;;;4990886;28;20306;-70
2021/12/07 06:49:34;;;;;;;46.30;17.20;;;;;;;;;;4996858;28;20191;-70
2021/12/07 06:52:00;;;;;;;46.37;15.90;;;;;;;;;;4996592;28;20316;-70
2021/12/07 06:54:25;;;;;;;39.10;16.53;;;;;;;;;;5000023;28;20192;-70
2021/12/07 06:56:54;;;;;;;43.03;16.30;;;;;;;;;;5003469;28;20182;-69
2021/12/07 06:59:20;;;;;;;41.73;16.67;;;;;;;;;;5000520;28;20191;-70
2021/12/07 07:01:46;;;;;;;43.27;15.93;;;;;;;;;;5002055;28;20179;-70
2021/12/07 07:04:14;;;;;;;44.37;15.97;;;;;;;;;;4984722;28;20655;-70
2021/12/07 07:06:39;;;;;;;40.43;14.73;;;;;;;;;;5003205;28;20240;-70
2021/12/07 07:09:05;;;;;;;44.07;16.50;;;;;;;;;;4991745;28;20209;-70
2021/12/07 07:11:31;;;;;;;41.70;14.37;;;;;;;;;;5003823;28;20214;-70
2021/12/07 07:13:56;;;;;;;32.80;14.00;;;;;;;;;;4995920;28;20190;-70
2021/12/07 07:16:21;;;;;;;38.33;14.27;;;;;;;;;;4997976;28;20695;-70
2021/12/07 07:18:47;;;;;;;40.70;14.47;;;;;;;;;;4995298;28;20328;-70
2021/12/07 07:21:12;;;;;;;42.50;14.43;;;;;;;;;;4997490;28;20264;-70
2021/12/07 07:23:38;;;;;;;46.20;15.43;;;;;;;;;;4989361;28;20270;-70
2021/12/07 07:26:04;;;;;;;42.03;15.13;;;;;;;;;;5003376;28;20197;-70
2021/12/07 07:28:30;;;;;;;41.50;13.37;;;;;;;;;;5007175;28;20197;-70
2021/12/07 07:30:57;;;;;;;35.57;13.07;;;;;;;;;;4999389;28;20650;-70
2021/12/07 07:33:23;;;;;;;40.53;13.40;;;;;;;;;;5001452;28;20244;-70
2021/12/07 07:35:48;;;;;;;30.90;13.90;;;;;;;;;;4993713;28;20190;-70
2021/12/07 07:38:15;;;;;;;32.70;12.93;;;;;;;;;;5001915;28;20195;-70
2021/12/07 07:40:43;;;;;;;34.17;12.47;;;;;;;;;;5001012;28;20194;-70
2021/12/07 07:43:09;;;;;;;39.07;12.37;;;;;;;;;;5010656;28;20198;-70
2021/12/07 07:45:35;;;;;;;33.83;12.17;;;;;;;;;;4999959;28;20322;-70
2021/12/07 07:48:00;;;;;;;35.00;12.57;;;;;;;;;;5005139;28;20607;-70
2021/12/07 07:50:25;;;;;;;32.57;12.20;;;;;;;;;;5005066;28;20186;-70
2021/12/07 07:52:51;;;;;;;31.73;11.77;;;;;;;;;;5006156;28;20209;-71
2021/12/07 07:55:16;;;;;;;35.17;12.20;;;;;;;;;;4998444;28;21780;-71
2021/12/07 07:57:42;;;;;;;34.53;11.13;;;;;;;;;;5003410;28;20186;-70
2021/12/07 08:00:10;;;;;;;39.27;11.37;;;;;;;;;;5005088;28;20245;-70
2021/12/07 08:02:36;;;;;;;28.80;11.47;;;;;;;;;;4994561;28;20277;-70
2021/12/07 08:05:02;;;;;;;32.73;11.33;;;;;;;;;;4996878;28;20285;-70
2021/12/07 08:07:28;;;;;;;36.80;11.23;;;;;;;;;;4995871;28;20622;-70
2021/12/07 08:09:53;;;;;;;33.97;11.17;;;;;;;;;;5004800;28;20269;-70
2021/12/07 08:12:19;;;;;;;33.37;11.77;;;;;;;;;;4997615;28;20317;-70
2021/12/07 08:14:44;;;;;;;35.40;11.87;;;;;;;;;;5003022;28;20187;-70
2021/12/07 08:17:09;;;;;;;41.63;10.83;;;;;;;;;;4999230;28;20597;-70
2021/12/07 08:19:36;;;;;;;35.17;11.13;;;;;;;;;;5013499;28;20221;-70
2021/12/07 08:22:02;;;;;;;29.97;11.40;;;;;;;;;;4997676;28;20236;-70
2021/12/07 08:24:27;;;;;;;35.00;10.93;;;;;;;;;;4999504;28;20522;-70
2021/12/07 08:26:52;;;;;;;32.07;10.90;;;;;;;;;;4998896;28;20237;-71
2021/12/07 08:29:18;;;;;;;32.53;10.43;;;;;;;;;;5013368;28;20237;-71
2021/12/07 08:31:43;;;;;;;31.87;11.27;;;;;;;;;;5005718;28;20215;-70
2021/12/07 08:34:08;;;;;;;31.00;11.17;;;;;;;;;;4998241;28;20194;-70
2021/12/07 08:36:34;;;;;;;36.83;11.17;;;;;;;;;;5000791;28;20237;-70
2021/12/07 08:38:59;;;;;;;43.17;10.53;;;;;;;;;;5003780;28;20229;-70
2021/12/07 08:41:25;;;;;;;27.13;10.27;;;;;;;;;;5007607;28;20707;-70
2021/12/07 08:43:50;;;;;;;35.40;11.43;;;;;;;;;;5005710;28;20600;-70
2021/12/07 08:46:16;;;;;;;35.53;11.50;;;;;;;;;;5013994;28;20217;-70
2021/12/07 08:48:42;;;;;;;44.53;12.80;;;;;;;;;;5001937;28;20195;-71
2021/12/07 08:51:10;;;;;;;38.07;12.07;;;;;;;;;;5014895;28;20174;-70
2021/12/07 08:53:43;;;;;;;38.90;12.77;;;;;;;;;;5001008;28;20187;-70
2021/12/07 09:01:36;;;;;;;41.47;12.33;;;;;;;;;;5017530;28;20205;-70
2021/12/07 09:04:04;;;;;;;45.93;13.80;;;;;;;;;;4999378;28;20278;-70
2021/12/07 09:06:30;;;;;;;44.73;14.27;;;;;;;;;;5007756;28;20203;-70
2021/12/07 09:08:56;;;;;;;33.87;13.87;;;;;;;;;;5003565;28;20658;-69
2021/12/07 09:11:22;;;;;;;35.67;13.87;;;;;;;;;;5006654;28;20244;-70
2021/12/07 09:13:48;;;;;;;38.87;13.77;;;;;;;;;;5003703;28;20545;-70
2021/12/07 09:16:15;;;;;;;42.90;14.23;;;;;;;;;;4999021;28;20225;-70
2021/12/07 09:18:41;;;;;;;37.30;13.63;;;;;;;;;;5012288;28;20190;-70
2021/12/07 09:21:07;;;;;;;32.67;13.07;;;;;;;;;;4998618;28;20278;-70
2021/12/07 09:23:33;;;;;;;41.97;14.50;;;;;;;;;;5008792;28;20179;-70
2021/12/07 09:25:59;;;;;;;37.63;13.27;;;;;;;;;;5001432;28;20613;-70
2021/12/07 09:28:25;;;;;;;38.00;12.77;;;;;;;;;;5006425;28;20631;-70
2021/12/07 09:30:53;;;;;;;36.47;12.77;;;;;;;;;;5002622;28;20195;-70
2021/12/07 09:33:26;;;;;;;28.87;11.93;;;;;;;;;;5006157;28;20213;-70
2021/12/07 09:35:52;;;;;;;25.37;11.93;;;;;;;;;;5001390;28;20194;-71
2021/12/07 09:38:18;;;;;;;27.97;11.73;;;;;;;;;;5010752;28;20583;-71
2021/12/07 09:40:44;;;;;;;36.97;12.53;;;;;;;;;;5000943;28;20249;-71
2021/12/07 09:43:10;;;;;;;29.97;11.27;;;;;;;;;;5006327;28;20278;-71
2021/12/07 09:45:36;;;;;;;29.73;10.57;;;;;;;;;;4999082;28;20273;-71
2021/12/07 09:48:04;;;;;;;33.83;10.70;;;;;;;;;;5009559;28;20265;-71
2021/12/07 09:50:30;;;;;;;34.43;10.60;;;;;;;;;;5007386;28;20203;-71
2021/12/07 09:52:55;;;;;;;26.23;10.23;;;;;;;;;;4997152;28;20586;-72
2021/12/07 09:55:21;;;;;;;31.60;10.47;;;;;;;;;;5007459;28;20261;-71
2021/12/07 09:57:47;;;;;;;30.63;9.90;;;;;;;;;;5002072;28;20192;-72
2021/12/07 10:00:17;;;;;;;24.87;8.93;;;;;;;;;;5008541;28;20205;-72
2021/12/07 10:02:43;;;;;;;22.53;9.20;;;;;;;;;;5001653;28;20293;-72
2021/12/07 10:05:09;;;;;;;26.10;9.20;;;;;;;;;;5008167;28;20273;-72
2021/12/07 10:07:37;;;;;;;25.23;9.47;;;;;;;;;;4997295;28;20229;-72
2021/12/07 10:10:08;;;;;;;22.53;8.53;;;;;;;;;;5004323;28;20191;-72
2021/12/07 10:12:33;;;;;;;17.30;8.37;;;;;;;;;;5012602;28;20214;-72
2021/12/07 10:15:06;;;;;;;27.43;8.87;;;;;;;;;;5015014;28;20197;-71
2021/12/07 10:17:36;;;;;;;24.10;8.80;;;;;;;;;;5005978;28;20260;-71
2021/12/07 10:20:32;;;;;;;26.00;8.93;;;;;;;;;;5003208;28;20179;-71
2021/12/07 10:23:04;;;;;;;21.60;8.67;;;;;;;;;;4999922;28;20195;-71
2021/12/07 10:25:30;;;;;;;24.67;9.03;;;;;;;;;;5011776;28;20521;-71
2021/12/07 10:27:57;;;;;;;27.27;8.87;;;;;;;;;;4998835;28;20206;-72
2021/12/07 10:30:23;;;;;;;28.23;9.43;;;;;;;;;;5011233;28;20511;-72
2021/12/07 10:33:00;;;;;;;28.93;9.13;;;;;;;;;;5003307;28;20321;-72
2021/12/07 10:35:36;;;;;;;23.03;9.03;;;;;;;;;;5011216;28;20174;-72
2021/12/07 10:38:06;;;;;;;25.37;9.87;;;;;;;;;;5010620;28;20676;-72
2021/12/07 10:40:32;;;;;;;28.23;9.03;;;;;;;;;;5005230;28;20244;-73
2021/12/07 10:42:57;;;;;;;32.33;9.40;;;;;;;;;;5014304;28;20170;-73
2021/12/07 10:45:28;;;;;;;20.50;8.20;;;;;;;;;;5000862;28;20190;-71
2021/12/07 10:47:53;;;;;;;27.07;8.97;;;;;;;;;;5006916;28;20630;-71
2021/12/07 10:50:19;;;;;;;23.83;8.67;;;;;;;;;;5000700;28;20190;-71
2021/12/07 10:52:45;;;;;;;25.03;8.40;;;;;;;;;;5004600;28;20195;-71
2021/12/07 10:55:23;;;;;;;19.97;8.27;;;;;;;;;;4994547;28;20288;-72
2021/12/07 10:57:54;;;;;;;20.57;8.57;;;;;;;;;;5010057;28;20182;-71
2021/12/07 11:00:25;;;;;;;17.83;8.40;;;;;;;;;;5000294;28;20252;-72
2021/12/07 11:03:00;;;;;;;27.47;9.00;;;;;;;;;;5005914;28;20261;-72
2021/12/07 11:05:40;;;;;;;27.27;9.67;;;;;;;;;;5000333;28;20662;-71
2021/12/07 11:08:08;;;;;;;18.97;8.17;;;;;;;;;;5011856;28;20283;-71
2021/12/07 11:10:38;;;;;;;20.90;8.93;;;;;;;;;;5001578;28;20184;-70
2021/12/07 11:15:35;;;;;;;23.37;10.27;;;;;;;;;;5001269;28;20210;-71
2021/12/07 11:18:11;;;;;;;25.53;10.73;;;;;;;;;;5004290;28;20227;-71
2021/12/07 11:20:38;;;;;;;26.60;9.97;;;;;;;;;;5001903;28;20678;-71
2021/12/07 11:23:06;;;;;;;31.83;11.53;;;;;;;;;;5001988;28;20245;-71
2021/12/07 11:31:25;;;;;;;34.70;12.13;;;;;;;;;;5002957;28;20268;-71
2021/12/07 11:33:55;;;;;;;28.60;11.70;;;;;;;;;;5007746;28;20222;-71
2021/12/07 11:36:23;;;;;;;28.97;12.83;;;;;;;;;;4998500;28;20185;-71
2021/12/07 11:38:50;;;;;;;26.63;11.87;;;;;;;;;;5003900;28;20639;-71
2021/12/07 11:41:23;;;;;;;24.43;11.67;;;;;;;;;;5002625;28;20197;-71
2021/12/07 11:44:05;;;;;;;24.83;12.20;;;;;;;;;;5006497;28;20729;-71
2021/12/07 11:46:32;;;;;;;31.93;12.67;;;;;;;;;;5003706;28;20190;-70
2021/12/07 11:49:16;;;;;;;32.10;11.80;;;;;;;;;;5005616;28;20638;-71
2021/12/07 11:51:44;;;;;;;29.57;11.53;;;;;;;;;;5004911;28;20211;-71
2021/12/07 11:54:11;;;;;;;27.90;11.47;;;;;;;;;;4996234;28;20190;-71
2021/12/07 11:56:37;;;;;;;27.57;11.67;;;;;;;;;;5009782;28;20221;-71
2021/12/07 11:59:04;;;;;;;25.90;10.87;;;;;;;;;;4989697;28;20506;-71
2021/12/07 12:01:30;;;;;;;24.20;9.97;;;;;;;;;;5008151;28;20201;-71
2021/12/07 12:03:55;;;;;;;28.97;11.03;;;;;;;;;;5000547;28;20191;-72
2021/12/07 12:06:20;;;;;;;22.33;10.10;;;;;;;;;;5012233;28;20198;-73
2021/12/07 12:08:46;;;;;;;26.53;10.17;;;;;;;;;;4998385;28;20198;-72
2021/12/07 12:11:51;;;;;;;20.00;8.27;;;;;;;;;;5006384;28;20628;-72
2021/12/07 12:14:57;;;;;;;25.00;9.33;;;;;;;;;;4998248;28;20190;-72
2021/12/07 12:17:36;;;;;;;22.80;9.00;;;;;;;;;;5004023;28;20253;-71
2021/12/07 12:20:27;;;;;;;22.03;8.43;;;;;;;;;;4994026;28;20213;-71
2021/12/07 12:23:02;;;;;;;29.30;8.57;;;;;;;;;;5002776;28;20319;-71
2021/12/07 12:25:28;;;;;;;20.47;8.03;;;;;;;;;;5011650;28;20635;-71
2021/12/07 12:27:56;;;;;;;21.37;8.00;;;;;;;;;;5013569;28;20181;-71
2021/12/07 12:30:36;;;;;;;20.67;8.07;;;;;;;;;;4997600;28;20221;-71
2021/12/07 12:33:11;;;;;;;20.00;8.30;;;;;;;;;;5009124;28;20218;-71
2021/12/07 12:35:40;;;;;;;24.57;8.67;;;;;;;;;;4996059;28;20186;-71
2021/12/07 12:38:25;;;;;;;21.33;8.10;;;;;;;;;;5010985;28;20249;-73
2021/12/07 12:41:13;;;;;;;23.13;9.03;;;;;;;;;;5003987;28;20294;-71
2021/12/07 12:43:58;;;;;;;22.00;8.87;;;;;;;;;;5005973;28;20289;-71
2021/12/07 12:46:32;;;;;;;30.17;9.93;;;;;;;;;;5002194;28;20645;-71
2021/12/07 12:49:05;;;;;;;23.67;9.23;;;;;;;;;;5010925;28;20198;-71
2021/12/07 12:51:41;;;;;;;27.60;9.30;;;;;;;;;;5002060;28;20218;-71
2021/12/07 12:54:08;;;;;;;19.57;9.40;;;;;;;;;;5007568;28;20293;-72
2021/12/07 12:56:36;;;;;;;27.33;9.60;;;;;;;;;;5002465;28;20213;-72
2021/12/07 12:59:04;;;;;;;25.07;9.67;;;;;;;;;;5007116;28;20198;-72
2021/12/07 13:01:33;;;;;;;27.40;9.37;;;;;;;;;;5008118;28;20199;-71
2021/12/07 13:04:04;;;;;;;30.03;9.37;;;;;;;;;;5008596;28;20281;-72
2021/12/07 13:06:33;;;;;;;21.63;9.60;;;;;;;;;;4997003;28;20289;-72
2021/12/07 13:09:00;;;;;;;26.00;10.73;;;;;;;;;;5006889;28;20309;-72
2021/12/07 13:11:54;;;;;;;24.07;9.60;;;;;;;;;;4999386;28;20289;-72
2021/12/07 13:14:19;;;;;;;32.03;11.07;;;;;;;;;;5002885;28;20225;-72
2021/12/07 13:17:00;;;;;;;21.50;8.87;;;;;;;;;;4999018;28;20254;-72
2021/12/07 13:19:27;;;;;;;21.23;9.47;;;;;;;;;;5008628;28;20179;-72
2021/12/07 13:21:52;;;;;;;29.93;10.57;;;;;;;;;;4998833;28;20178;-72
2021/12/07 13:24:31;;;;;;;25.03;10.10;;;;;;;;;;5007458;28;20182;-71
2021/12/07 13:26:57;;;;;;;20.90;9.30;;;;;;;;;;5000145;28;21289;-72
2021/12/07 13:29:25;;;;;;;21.37;8.70;;;;;;;;;;5017501;28;20266;-72
2021/12/07 13:31:56;;;;;;;26.37;9.13;;;;;;;;;;5001372;28;20306;-72
2021/12/07 13:34:36;;;;;;;22.43;9.30;;;;;;;;;;5014221;28;20277;-72
2021/12/07 13:37:12;;;;;;;27.20;9.10;;;;;;;;;;5008261;28;20194;-72
2021/12/07 13:39:52;;;;;;;25.00;9.50;;;;;;;;;;5013221;28;20271;-72
2021/12/07 13:42:17;;;;;;;23.13;8.87;;;;;;;;;;5012241;28;20188;-72
2021/12/07 13:44:51;;;;;;;22.87;8.53;;;;;;;;;;5004388;28;20187;-72
2021/12/07 13:47:20;;;;;;;22.00;8.80;;;;;;;;;;5009462;28;20186;-72
2021/12/07 13:49:51;;;;;;;26.33;9.33;;;;;;;;;;4998546;28;20265;-72
2021/12/07 13:52:23;;;;;;;22.13;8.23;;;;;;;;;;5012153;28;20264;-72
2021/12/07 13:54:52;;;;;;;24.23;7.87;;;;;;;;;;5003686;28;20212;-72
2021/12/07 13:57:20;;;;;;;17.37;8.37;;;;;;;;;;5019380;28;20381;-72
2021/12/07 14:00:20;;;;;;;22.50;8.43;;;;;;;;;;5002954;28;20278;-72
2021/12/07 14:02:49;;;;;;;26.50;8.63;;;;;;;;;;5003432;28;20194;-72
2021/12/07 14:05:24;;;;;;;23.27;7.87;;;;;;;;;;5004976;28;20186;-72
2021/12/07 14:07:52;;;;;;;24.43;8.53;;;;;;;;;;5011750;28;20704;-72
2021/12/07 14:10:27;;;;;;;22.13;7.43;;;;;;;;;;5006136;28;20188;-72
2021/12/07 14:12:54;;;;;;;24.03;7.40;;;;;;;;;;5013946;28;20206;-73
2021/12/07 14:15:21;;;;;;;26.13;8.00;;;;;;;;;;5004331;28;20190;-72
2021/12/07 14:17:50;;;;;;;22.40;8.50;;;;;;;;;;5008755;28;20225;-72
2021/12/07 14:20:44;;;;;;;16.97;7.57;;;;;;;;;;5010441;28;20209;-71
2021/12/07 14:23:25;;;;;;;24.27;6.63;;;;;;;;;;5010673;28;20210;-71
2021/12/07 14:26:12;;;;;;;26.77;6.80;;;;;;;;;;5013191;28;20189;-71
2021/12/07 14:28:39;;;;;;;24.17;6.33;;;;;;;;;;5011992;28;20190;-71
2021/12/07 14:31:16;;;;;;;19.10;6.37;;;;;;;;;;5008690;28;20210;-71
2021/12/07 14:33:51;;;;;;;18.33;5.97;;;;;;;;;;5010580;28;20253;-71
2021/12/07 14:36:25;;;;;;;18.47;6.30;;;;;;;;;;5000109;28;20518;-72
2021/12/07 14:38:54;;;;;;;25.83;6.83;;;;;;;;;;5011697;28;20588;-72
2021/12/07 14:41:25;;;;;;;23.33;6.10;;;;;;;;;;4996770;28;20596;-72
2021/12/07 14:43:53;;;;;;;21.07;6.07;;;;;;;;;;5015656;28;20707;-72
2021/12/07 14:46:22;;;;;;;23.20;6.77;;;;;;;;;;5001381;28;20240;-72
2021/12/07 14:48:49;;;;;;;19.63;6.10;;;;;;;;;;5007111;28;20190;-72
2021/12/07 14:51:24;;;;;;;19.30;6.13;;;;;;;;;;5001275;28;20182;-72
2021/12/07 14:53:53;;;;;;;22.37;7.33;;;;;;;;;;5017500;28;20741;-72
2021/12/07 14:56:19;;;;;;;23.03;6.53;;;;;;;;;;5002057;28;20213;-72
2021/12/07 14:58:48;;;;;;;21.43;6.57;;;;;;;;;;5015615;28;20186;-72
2021/12/07 15:01:21;;;;;;;25.43;6.60;;;;;;;;;;5009714;28;20230;-72
2021/12/07 15:03:51;;;;;;;29.60;7.07;;;;;;;;;;5010973;28;20545;-72
2021/12/07 15:06:17;;;;;;;26.33;6.83;;;;;;;;;;5011399;28;20198;-72
2021/12/07 15:08:43;;;;;;;18.70;6.73;;;;;;;;;;5002629;28;20186;-72
2021/12/07 15:11:10;;;;;;;22.40;6.20;;;;;;;;;;5013542;28;20196;-72
2021/12/07 15:13:35;;;;;;;21.23;6.60;;;;;;;;;;5003317;28;20757;-72
2021/12/07 15:16:05;;;;;;;22.30;6.80;;;;;;;;;;5004168;28;20190;-72
2021/12/07 15:18:38;;;;;;;20.20;7.23;;;;;;;;;;5008558;28;20210;-72
2021/12/07 15:21:04;;;;;;;27.80;6.50;;;;;;;;;;5009228;28;20179;-72
2021/12/07 15:23:29;;;;;;;22.13;7.67;;;;;;;;;;5008934;28;20554;-72
2021/12/07 15:25:56;;;;;;;29.37;8.13;;;;;;;;;;5018271;28;20281;-72
2021/12/07 15:28:22;;;;;;;19.93;7.37;;;;;;;;;;5005201;28;20243;-72
2021/12/07 15:30:49;;;;;;;17.37;6.80;;;;;;;;;;5011324;28;20201;-72
2021/12/07 15:33:15;;;;;;;22.70;7.13;;;;;;;;;;4993390;28;20623;-72
2021/12/07 15:35:43;;;;;;;24.20;6.43;;;;;;;;;;5008293;28;20181;-70
2021/12/07 15:38:13;;;;;;;20.37;6.73;;;;;;;;;;5010502;28;20198;-71
2021/12/07 15:40:40;;;;;;;24.20;7.23;;;;;;;;;;5007298;28;20627;-72
2021/12/07 15:43:05;;;;;;;25.67;7.27;;;;;;;;;;5002782;28;20230;-72
2021/12/07 15:45:31;;;;;;;32.20;7.80;;;;;;;;;;4999864;28;20182;-71
2021/12/07 15:47:56;;;;;;;26.97;7.10;;;;;;;;;;5012832;28;20174;-71
2021/12/07 15:50:24;;;;;;;33.07;7.53;;;;;;;;;;5006546;28;20199;-71
2021/12/07 15:52:53;;;;;;;25.53;7.60;;;;;;;;;;4310669;28;10000811;-73
2021/12/07 15:55:22;;;;;;;21.10;7.73;;;;;;;;;;4999003;28;20638;-72
2021/12/07 15:57:55;;;;;;;31.73;8.77;;;;;;;;;;5007724;28;20548;-72
2021/12/07 16:00:31;;;;;;;30.53;9.93;;;;;;;;;;5003144;28;20186;-72
2021/12/07 16:03:00;;;;;;;25.23;9.77;;;;;;;;;;5009574;28;20597;-72
2021/12/07 16:05:26;;;;;;;32.13;9.53;;;;;;;;;;5003734;28;20198;-72
2021/12/07 16:07:52;;;;;;;25.43;9.27;;;;;;;;;;5006159;28;20256;-72
2021/12/07 16:10:22;;;;;;;28.07;10.30;;;;;;;;;;4998274;28;20194;-72